Monday, May 25, 2015, 11:20 AM EDT

KW99, Petersburg, Grant County Airport

Location: Petersburg, WV, United States Lat: 38.983
Local Time: 11:20 AM EDT (15:20 GMT) Lon: -79.133
Time Zone: US/Eastern Elev: 961 ft

Show me the last for .
Show Decoded

2015-05-25 10:55 METAR KW99 251455Z AUTO 20008KT 10SM CLR 26/11 A3025 RMK AO2 T02580112 =
2015-05-25 10:35 METAR KW99 251435Z AUTO 18008KT 10SM CLR 26/12 A3025 RMK AO2 T02560115 =
2015-05-25 10:15 METAR KW99 251415Z AUTO 20008KT 10SM CLR 25/11 A3025 RMK AO2 T02450109 =
2015-05-25 09:55 METAR KW99 251355Z AUTO 19009G14KT 10SM CLR 24/12 A3025 RMK AO2 T02360115 =
2015-05-25 09:35 METAR KW99 251335Z AUTO 00000KT 10SM CLR 22/13 A3026 RMK AO2 T02190130 =
2015-05-25 09:15 METAR KW99 251315Z AUTO 00000KT 10SM CLR 21/13 A3027 RMK AO2 T02080128 =
2015-05-25 08:55 METAR KW99 251255Z AUTO 00000KT 10SM CLR 20/12 A3027 RMK AO2 T01950124 =
2015-05-25 08:35 METAR KW99 251235Z AUTO 00000KT 10SM CLR 18/13 A3027 RMK AO2 T01780131 =
2015-05-25 08:15 METAR KW99 251215Z AUTO 00000KT 10SM CLR 16/12 A3027 RMK AO2 T01640124 =
2015-05-25 07:55 METAR KW99 251155Z AUTO 00000KT 10SM CLR 15/12 A3027 RMK AO2 T01530122 10153
                 20107 =
2015-05-25 07:35 METAR KW99 251135Z AUTO 00000KT 10SM CLR 14/12 A3027 RMK AO2 T01410124 =
2015-05-25 07:15 METAR KW99 251115Z AUTO 00000KT 7SM CLR 13/11 A3027 RMK AO2 T01290114 =
2015-05-25 06:55 METAR KW99 251055Z AUTO 00000KT 7SM CLR 12/10 A3027 RMK AO2 T01160101 =
2015-05-25 06:35 METAR KW99 251035Z AUTO 00000KT 4SM BR CLR 11/10 A3026 RMK AO2 T01140099 =
2015-05-25 06:15 METAR KW99 251015Z AUTO 00000KT 1SM BR VV007 11/09 A3026 RMK AO2 T01090092 =
2015-05-25 05:55 METAR KW99 250955Z AUTO 00000KT 7SM CLR 11/10 A3025 RMK AO2 T01140097 =
2015-05-25 05:35 METAR KW99 250935Z AUTO 00000KT 10SM CLR 12/10 A3025 RMK AO2 T01150097 =
2015-05-25 05:15 METAR KW99 250915Z AUTO 28003KT 10SM CLR 12/10 A3025 RMK AO2 T01170099 =
2015-05-25 04:55 METAR KW99 250855Z AUTO 29005KT 10SM CLR 12/10 A3024 RMK AO2 T01190098 =
2015-05-25 04:35 METAR KW99 250835Z AUTO 29003KT 10SM CLR 13/11 A3023 RMK AO2 T01310111 =
2015-05-25 04:15 METAR KW99 250815Z AUTO 31005KT 10SM CLR 12/10 A3023 RMK AO2 T01200100 =
2015-05-25 03:55 METAR KW99 250755Z AUTO 28003KT 10SM CLR 13/11 A3023 RMK AO2 T01250105 =
2015-05-25 03:35 METAR KW99 250735Z AUTO 00000KT 7SM CLR 13/11 A3024 RMK AO2 T01300111 =
2015-05-25 02:55 METAR KW99 250655Z AUTO 00000KT 10SM CLR 13/11 A3024 RMK AO2 T01340111 =
2015-05-25 02:35 METAR KW99 250635Z AUTO 00000KT 10SM CLR 14/12 A3025 RMK AO2 T01430119 =
2015-05-25 02:15 METAR KW99 250615Z AUTO 27005KT 10SM CLR 14/11 A3025 RMK AO2 T01360110 =
2015-05-25 01:55 METAR KW99 250555Z AUTO 27003KT 10SM CLR 16/11 A3025 RMK AO2 T01560113 10222
                 20136 402850061 =
2015-05-25 01:35 METAR KW99 250535Z AUTO 00000KT 10SM CLR 15/12 A3025 RMK AO2 T01450123 =
2015-05-25 01:15 METAR KW99 250515Z AUTO 00000KT 10SM CLR 14/12 A3025 RMK AO2 T01410115 =
2015-05-25 00:55 METAR KW99 250455Z AUTO 00000KT 10SM CLR 14/12 A3025 RMK AO2 T01440121 =
2015-05-25 00:35 METAR KW99 250435Z AUTO 00000KT 10SM CLR 14/11 A3025 RMK AO2 T01430114 =
2015-05-25 00:15 METAR KW99 250415Z AUTO 00000KT 10SM CLR 14/12 A3025 RMK AO2 T01430116 =
2015-05-24 23:55 METAR KW99 250355Z AUTO 00000KT 10SM CLR 15/12 A3026 RMK AO2 T01460119 =
2015-05-24 23:35 METAR KW99 250335Z AUTO 00000KT 10SM CLR 16/12 A3025 RMK AO2 T01570118 =
2015-05-24 23:15 METAR KW99 250315Z AUTO 00000KT 10SM CLR 15/12 A3025 RMK AO2 T01540124 =
2015-05-24 22:35 METAR KW99 250235Z AUTO 00000KT 7SM CLR 16/14 A3025 RMK AO2 T01640136 =
2015-05-24 22:15 METAR KW99 250215Z AUTO 00000KT 10SM CLR 17/14 A3025 RMK AO2 T01740140 =
2015-05-24 21:55 METAR KW99 250155Z AUTO 00000KT 10SM CLR 18/14 A3025 RMK AO2 T01810138 =
2015-05-24 21:35 METAR KW99 250135Z AUTO 00000KT 10SM SCT085 19/14 A3024 RMK AO2 T01900142 =
2015-05-24 21:15 METAR KW99 250115Z AUTO 00000KT 10SM BKN085 19/14 A3023 RMK AO2 T01890140 =
2015-05-24 20:55 METAR KW99 250055Z AUTO 00000KT 10SM BKN095 20/15 A3023 RMK AO2 T01980146 =
2015-05-24 20:35 METAR KW99 250035Z AUTO 00000KT 10SM BKN095 21/14 A3023 RMK AO2 T02050141 =
2015-05-24 20:15 METAR KW99 250015Z AUTO 00000KT 10SM OVC095 22/14 A3023 RMK AO2 T02190141 =
2015-05-24 19:35 METAR KW99 242335Z AUTO 00000KT 10SM SCT095 22/14 A3023 RMK AO2 T02220141 =
2015-05-24 19:15 METAR KW99 242315Z AUTO 00000KT 10SM SCT095 24/14 A3023 RMK AO2 T02360140 =
2015-05-24 18:55 METAR KW99 242255Z AUTO 00000KT 10SM SCT085 26/11 A3023 RMK AO2 T02550108 =
2015-05-24 18:35 METAR KW99 242235Z AUTO 22004KT 10SM SCT085 26/10 A3023 RMK AO2 T02620100 =
2015-05-24 18:15 METAR KW99 242215Z AUTO 14004KT 10SM CLR 27/11 A3023 RMK AO2 T02680105 =
2015-05-24 17:55 METAR KW99 242155Z AUTO 17004KT 10SM SCT085 27/09 A3024 RMK AO2 T02720094 =
2015-05-24 17:35 METAR KW99 242135Z AUTO 13005KT 10SM SCT085 27/10 A3023 RMK AO2 T02740103 =
2015-05-24 17:15 METAR KW99 242115Z AUTO 13003KT 10SM CLR 27/10 A3024 RMK AO2 T02700104 =
2015-05-24 16:55 METAR KW99 242055Z AUTO 16006KT 10SM SCT095 27/10 A3024 RMK AO2 T02740097 =
2015-05-24 16:35 METAR KW99 242035Z AUTO 14004KT 10SM BKN095 27/11 A3025 RMK AO2 T02660109 =
2015-05-24 16:15 METAR KW99 242015Z AUTO 17005KT 10SM SCT095 27/09 A3026 RMK AO2 T02700087 =
2015-05-24 15:55 METAR KW99 241955Z AUTO 15004KT 10SM BKN095 BKN120 27/09 A3026 RMK AO2 T02700089
                 =
2015-05-24 15:35 METAR KW99 241935Z AUTO 15004KT 10SM SCT085 27/08 A3026 RMK AO2 T02730080 =
2015-05-24 15:15 METAR KW99 241915Z AUTO 00000KT 10SM BKN095 28/09 A3027 RMK AO2 T02840086 =
2015-05-24 14:55 METAR KW99 241855Z AUTO 07003KT 10SM SCT095 28/07 A3028 RMK AO2 T02770073 =
2015-05-24 14:35 METAR KW99 241835Z AUTO 00000KT 10SM SCT095 27/08 A3029 RMK AO2 T02680081 =
2015-05-24 14:15 METAR KW99 241815Z AUTO 08003KT 10SM SCT095 26/08 A3031 RMK AO2 T02610077 =
2015-05-24 13:55 METAR KW99 241755Z AUTO 00000KT 10SM CLR 27/08 A3032 RMK AO2 T02680078 10268
                 20101 =
2015-05-24 13:35 METAR KW99 241735Z AUTO 00000KT 10SM CLR 26/09 A3032 RMK AO2 T02610090 =
2015-05-24 13:15 METAR KW99 241715Z AUTO 00000KT 10SM CLR 26/06 A3033 RMK AO2 T02600060 =
2015-05-24 12:55 METAR KW99 241655Z AUTO 00000KT 10SM CLR 26/06 A3034 RMK AO2 T02570060 =
2015-05-24 12:35 METAR KW99 241635Z AUTO 15003KT 10SM CLR 25/09 A3035 RMK AO2 T02530092 =
2015-05-24 12:15 METAR KW99 241615Z AUTO 00000KT 10SM CLR 24/08 A3035 RMK AO2 T02440082 =
2015-05-24 11:55 METAR KW99 241555Z AUTO 00000KT 10SM CLR 24/08 A3036 RMK AO2 T02350078 =
2015-05-24 11:35 METAR KW99 241535Z AUTO 00000KT 10SM CLR 23/08 A3037 RMK AO2 T02270077 =

Support USWX by starting your Amazon purchase here.